sensor_id;sensor_type;location;lat;lon;timestamp;pressure;altitude;pressure_sealevel;temperature;humidity
67397;BME280;57728;50.448;18.824;2023-03-20T00:00:47;97741.22;;;10.33;45.47
67397;BME280;57728;50.448;18.824;2023-03-20T00:02:51;97674.75;;;9.93;45.41
67397;BME280;57728;50.448;18.824;2023-03-20T00:04:53;97777.69;;;10.56;45.37
67397;BME280;57728;50.448;18.824;2023-03-20T00:06:55;97768.69;;;10.43;45.57
67397;BME280;57728;50.448;18.824;2023-03-20T00:08:57;97683.50;;;9.95;45.41
67397;BME280;57728;50.448;18.824;2023-03-20T00:10:59;97696.53;;;10.05;45.34
67397;BME280;57728;50.448;18.824;2023-03-20T00:13:01;97723.38;;;10.25;45.53
67397;BME280;57728;50.448;18.824;2023-03-20T00:15:13;97785.63;;;10.57;45.54
67397;BME280;57728;50.448;18.824;2023-03-20T00:17:24;97632.88;;;9.59;45.32
67397;BME280;57728;50.448;18.824;2023-03-20T00:19:28;97758.41;;;10.33;45.47
67397;BME280;57728;50.448;18.824;2023-03-20T00:21:31;97785.63;;;10.57;45.61
67397;BME280;57728;50.448;18.824;2023-03-20T00:23:34;97772.97;;;10.51;45.51
67397;BME280;57728;50.448;18.824;2023-03-20T00:25:37;97719.56;;;10.14;45.45
67397;BME280;57728;50.448;18.824;2023-03-20T00:27:41;97768.69;;;10.43;45.84
67397;BME280;57728;50.448;18.824;2023-03-20T00:29:45;97768.00;;;10.48;45.55
67397;BME280;57728;50.448;18.824;2023-03-20T00:31:46;97753.69;;;10.41;45.51
67397;BME280;57728;50.448;18.824;2023-03-20T00:33:49;97749.78;;;10.37;45.58
67397;BME280;57728;50.448;18.824;2023-03-20T00:35:52;97702.78;;;10.06;45.46
67397;BME280;57728;50.448;18.824;2023-03-20T00:37:56;97766.22;;;10.42;45.59
67397;BME280;57728;50.448;18.824;2023-03-20T00:39:58;97783.03;;;10.51;45.56
67397;BME280;57728;50.448;18.824;2023-03-20T00:42:03;97753.66;;;10.29;45.74
67397;BME280;57728;50.448;18.824;2023-03-20T00:46:28;97783.41;;;10.42;45.85
67397;BME280;57728;50.448;18.824;2023-03-20T00:48:36;97792.63;;;10.41;45.75
67397;BME280;57728;50.448;18.824;2023-03-20T00:50:40;97788.47;;;10.39;45.79
67397;BME280;57728;50.448;18.824;2023-03-20T00:52:41;97713.88;;;9.92;46.09
67397;BME280;57728;50.448;18.824;2023-03-20T00:54:47;97737.44;;;10.10;45.97
67397;BME280;57728;50.448;18.824;2023-03-20T00:57:04;97788.94;;;10.36;46.11
67397;BME280;57728;50.448;18.824;2023-03-20T00:59:17;97760.63;;;10.25;46.11
67397;BME280;57728;50.448;18.824;2023-03-20T01:01:22;97789.53;;;10.38;46.30
67397;BME280;57728;50.448;18.824;2023-03-20T01:03:26;97774.59;;;10.28;46.17
67397;BME280;57728;50.448;18.824;2023-03-20T01:05:30;97752.13;;;10.21;46.37
67397;BME280;57728;50.448;18.824;2023-03-20T01:07:33;97773.06;;;10.32;46.18
67397;BME280;57728;50.448;18.824;2023-03-20T01:09:37;97714.34;;;9.89;46.11
67397;BME280;57728;50.448;18.824;2023-03-20T01:11:40;97755.06;;;10.20;46.32
67397;BME280;57728;50.448;18.824;2023-03-20T01:13:43;97746.69;;;10.21;46.26
67397;BME280;57728;50.448;18.824;2023-03-20T01:15:45;97702.41;;;9.90;46.19
67397;BME280;57728;50.448;18.824;2023-03-20T01:17:48;97775.34;;;10.36;46.24
67397;BME280;57728;50.448;18.824;2023-03-20T01:19:51;97752.22;;;10.26;46.22
67397;BME280;57728;50.448;18.824;2023-03-20T01:21:53;97770.94;;;10.35;46.36
67397;BME280;57728;50.448;18.824;2023-03-20T01:23:54;97756.50;;;10.22;46.36
67397;BME280;57728;50.448;18.824;2023-03-20T01:25:56;97753.88;;;10.27;46.22
67397;BME280;57728;50.448;18.824;2023-03-20T01:27:59;97677.69;;;9.80;46.21
67397;BME280;57728;50.448;18.824;2023-03-20T01:30:01;97742.28;;;10.20;46.40
67397;BME280;57728;50.448;18.824;2023-03-20T01:32:11;97772.75;;;10.41;46.36
67397;BME280;57728;50.448;18.824;2023-03-20T01:34:17;97777.09;;;10.42;46.25
67397;BME280;57728;50.448;18.824;2023-03-20T01:36:22;97724.44;;;10.12;46.24
67397;BME280;57728;50.448;18.824;2023-03-20T01:38:26;97731.06;;;10.17;46.37
67397;BME280;57728;50.448;18.824;2023-03-20T01:40:42;97731.06;;;10.17;46.40
67397;BME280;57728;50.448;18.824;2023-03-20T01:42:51;97698.06;;;10.01;46.34
67397;BME280;57728;50.448;18.824;2023-03-20T01:44:54;97752.59;;;10.30;46.28
67397;BME280;57728;50.448;18.824;2023-03-20T01:46:57;97622.59;;;9.49;46.26
67397;BME280;57728;50.448;18.824;2023-03-20T01:49:04;97777.72;;;10.44;46.20
67397;BME280;57728;50.448;18.824;2023-03-20T01:51:24;97775.56;;;10.46;46.15
67397;BME280;57728;50.448;18.824;2023-03-20T01:53:35;97752.97;;;10.33;46.23
67397;BME280;57728;50.448;18.824;2023-03-20T01:55:38;97771.56;;;10.48;46.13
67397;BME280;57728;50.448;18.824;2023-03-20T01:57:45;97574.25;;;9.27;46.26
67397;BME280;57728;50.448;18.824;2023-03-20T01:59:51;97731.31;;;10.27;46.18
67397;BME280;57728;50.448;18.824;2023-03-20T02:02:24;97721.25;;;10.15;46.32
67397;BME280;57728;50.448;18.824;2023-03-20T02:04:33;97743.84;;;10.28;46.15
67397;BME280;57728;50.448;18.824;2023-03-20T02:06:44;97735.44;;;10.29;46.18
67397;BME280;57728;50.448;18.824;2023-03-20T02:09:13;97764.09;;;10.44;46.24
67397;BME280;57728;50.448;18.824;2023-03-20T02:11:20;97725.97;;;10.20;46.31
67397;BME280;57728;50.448;18.824;2023-03-20T02:13:26;97656.06;;;9.73;46.17
67397;BME280;57728;50.448;18.824;2023-03-20T02:15:33;97760.28;;;10.33;46.24
67397;BME280;57728;50.448;18.824;2023-03-20T02:17:58;97725.72;;;10.10;46.32
67397;BME280;57728;50.448;18.824;2023-03-20T02:20:05;97788.34;;;10.45;46.42
67397;BME280;57728;50.448;18.824;2023-03-20T02:41:04;97776.28;;;10.41;46.46
67397;BME280;57728;50.448;18.824;2023-03-20T02:43:17;97779.81;;;10.42;46.51
67397;BME280;57728;50.448;18.824;2023-03-20T02:45:30;97798.28;;;10.40;46.42
67397;BME280;57728;50.448;18.824;2023-03-20T02:48:09;97789.06;;;10.41;46.62
67397;BME280;57728;50.448;18.824;2023-03-20T02:56:11;97774.72;;;10.33;46.62
67397;BME280;57728;50.448;18.824;2023-03-20T02:58:43;97779.56;;;10.31;46.70
67397;BME280;57728;50.448;18.824;2023-03-20T03:05:36;97761.09;;;10.22;46.89
67397;BME280;57728;50.448;18.824;2023-03-20T03:07:44;97759.22;;;10.22;46.89
67397;BME280;57728;50.448;18.824;2023-03-20T03:10:09;97737.53;;;10.04;46.89
67397;BME280;57728;50.448;18.824;2023-03-20T03:12:29;97756.38;;;10.17;47.04
67397;BME280;57728;50.448;18.824;2023-03-20T03:17:24;97775.16;;;10.30;47.09
67397;BME280;57728;50.448;18.824;2023-03-20T03:19:35;97736.72;;;10.03;46.98
67397;BME280;57728;50.448;18.824;2023-03-20T03:21:39;97786.53;;;10.27;47.05
67397;BME280;57728;50.448;18.824;2023-03-20T03:23:46;97761.66;;;10.12;47.26
67397;BME280;57728;50.448;18.824;2023-03-20T03:25:49;97774.69;;;10.22;47.07
67397;BME280;57728;50.448;18.824;2023-03-20T03:30:40;97759.53;;;10.02;47.22
67397;BME280;57728;50.448;18.824;2023-03-20T03:33:01;97779.66;;;10.13;47.31
67397;BME280;57728;50.448;18.824;2023-03-20T03:35:16;97776.13;;;10.12;47.38
67397;BME280;57728;50.448;18.824;2023-03-20T03:38:00;97773.16;;;10.14;47.29
67397;BME280;57728;50.448;18.824;2023-03-20T03:42:33;97766.88;;;10.13;47.58
67397;BME280;57728;50.448;18.824;2023-03-20T03:44:55;97770.69;;;10.12;47.52
67397;BME280;57728;50.448;18.824;2023-03-20T03:47:16;97738.25;;;9.87;47.61
67397;BME280;57728;50.448;18.824;2023-03-20T03:49:30;97778.00;;;10.12;47.66
67397;BME280;57728;50.448;18.824;2023-03-20T03:51:40;97764.06;;;10.08;47.75
67397;BME280;57728;50.448;18.824;2023-03-20T03:53:53;97766.06;;;10.13;47.70
67397;BME280;57728;50.448;18.824;2023-03-20T03:56:10;97703.69;;;9.76;47.69
67397;BME280;57728;50.448;18.824;2023-03-20T03:58:20;97663.69;;;9.53;47.66
67397;BME280;57728;50.448;18.824;2023-03-20T04:00:31;97772.69;;;10.17;47.85
67397;BME280;57728;50.448;18.824;2023-03-20T04:02:35;97773.75;;;10.16;47.92
67397;BME280;57728;50.448;18.824;2023-03-20T04:04:42;97656.84;;;9.50;47.87
67397;BME280;57728;50.448;18.824;2023-03-20T04:06:47;97738.47;;;9.97;48.01
67397;BME280;57728;50.448;18.824;2023-03-20T04:08:50;97728.66;;;9.96;48.03
67397;BME280;57728;50.448;18.824;2023-03-20T04:10:51;97675.72;;;9.45;48.05
67397;BME280;57728;50.448;18.824;2023-03-20T04:12:53;97707.47;;;9.75;48.03
67397;BME280;57728;50.448;18.824;2023-03-20T04:14:55;97594.72;;;9.00;48.21
67397;BME280;57728;50.448;18.824;2023-03-20T04:16:58;97566.44;;;8.77;48.07
67397;BME280;57728;50.448;18.824;2023-03-20T04:19:00;97580.00;;;8.77;48.35
67397;BME280;57728;50.448;18.824;2023-03-20T04:21:03;97576.00;;;8.80;48.17
67397;BME280;57728;50.448;18.824;2023-03-20T04:23:04;97780.00;;;10.05;48.35
67397;BME280;57728;50.448;18.824;2023-03-20T04:25:08;97786.47;;;10.04;48.39
67397;BME280;57728;50.448;18.824;2023-03-20T04:27:16;97742.34;;;9.78;48.59
67397;BME280;57728;50.448;18.824;2023-03-20T04:29:18;97778.81;;;10.01;48.52
67397;BME280;57728;50.448;18.824;2023-03-20T04:31:35;97770.97;;;9.92;48.86
67397;BME280;57728;50.448;18.824;2023-03-20T04:33:38;97777.84;;;9.95;48.74
67397;BME280;57728;50.448;18.824;2023-03-20T04:35:56;97786.47;;;9.92;48.95
67397;BME280;57728;50.448;18.824;2023-03-20T04:37:58;97777.13;;;9.88;48.91
67397;BME280;57728;50.448;18.824;2023-03-20T04:40:04;97766.31;;;9.69;49.02
67397;BME280;57728;50.448;18.824;2023-03-20T04:42:06;97793.19;;;9.77;49.30
67397;BME280;57728;50.448;18.824;2023-03-20T04:44:08;97753.84;;;9.50;49.48
67397;BME280;57728;50.448;18.824;2023-03-20T04:46:11;97733.59;;;9.34;49.63
67397;BME280;57728;50.448;18.824;2023-03-20T04:48:12;97790.41;;;9.66;49.66
67397;BME280;57728;50.448;18.824;2023-03-20T04:50:14;97747.75;;;9.36;49.87
67397;BME280;57728;50.448;18.824;2023-03-20T04:52:17;97752.44;;;9.28;49.84
67397;BME280;57728;50.448;18.824;2023-03-20T04:54:18;97746.91;;;9.23;50.13
67397;BME280;57728;50.448;18.824;2023-03-20T04:56:21;97764.06;;;9.36;50.10
67397;BME280;57728;50.448;18.824;2023-03-20T04:58:24;97775.53;;;9.38;50.10
67397;BME280;57728;50.448;18.824;2023-03-20T05:00:26;97790.22;;;9.49;50.29
67397;BME280;57728;50.448;18.824;2023-03-20T05:02:27;97796.97;;;9.46;50.37
67397;BME280;57728;50.448;18.824;2023-03-20T05:04:30;97595.31;;;8.16;50.48
67397;BME280;57728;50.448;18.824;2023-03-20T05:06:32;97583.44;;;8.17;50.67
67397;BME280;57728;50.448;18.824;2023-03-20T05:08:34;97800.50;;;9.46;50.55
67397;BME280;57728;50.448;18.824;2023-03-20T05:10:37;97774.56;;;9.32;50.71
67397;BME280;57728;50.448;18.824;2023-03-20T05:13:01;97724.81;;;9.01;50.92
67397;BME280;57728;50.448;18.824;2023-03-20T05:15:18;97809.63;;;9.52;50.69
67397;BME280;57728;50.448;18.824;2023-03-20T05:17:47;97751.34;;;9.18;51.02
67397;BME280;57728;50.448;18.824;2023-03-20T05:20:12;97800.13;;;9.43;51.10
67397;BME280;57728;50.448;18.824;2023-03-20T05:22:27;97811.75;;;9.50;51.21
67397;BME280;57728;50.448;18.824;2023-03-20T05:24:41;97777.13;;;9.27;51.26
67397;BME280;57728;50.448;18.824;2023-03-20T05:27:02;97761.75;;;9.21;51.38
67397;BME280;57728;50.448;18.824;2023-03-20T05:29:42;97754.00;;;9.06;51.52
67397;BME280;57728;50.448;18.824;2023-03-20T05:31:53;97804.13;;;9.40;51.66
67397;BME280;57728;50.448;18.824;2023-03-20T05:34:30;97743.59;;;9.03;51.99
67397;BME280;57728;50.448;18.824;2023-03-20T05:36:46;97817.38;;;9.49;52.04
67397;BME280;57728;50.448;18.824;2023-03-20T05:39:11;97780.81;;;9.33;52.08
67397;BME280;57728;50.448;18.824;2023-03-20T05:41:31;97798.25;;;9.43;52.18
67397;BME280;57728;50.448;18.824;2023-03-20T05:43:42;97811.53;;;9.52;52.08
67397;BME280;57728;50.448;18.824;2023-03-20T05:46:03;97700.19;;;8.84;52.04
67397;BME280;57728;50.448;18.824;2023-03-20T05:48:23;97809.16;;;9.55;52.10
67397;BME280;57728;50.448;18.824;2023-03-20T05:50:44;97764.59;;;9.26;52.10
67397;BME280;57728;50.448;18.824;2023-03-20T05:52:47;97724.34;;;9.04;52.15
67397;BME280;57728;50.448;18.824;2023-03-20T05:54:56;97801.09;;;9.49;52.22
67397;BME280;57728;50.448;18.824;2023-03-20T05:57:13;97770.34;;;9.36;52.23
67397;BME280;57728;50.448;18.824;2023-03-20T05:59:26;97740.72;;;9.16;52.31
67397;BME280;57728;50.448;18.824;2023-03-20T06:01:57;97766.53;;;9.37;52.27
67397;BME280;57728;50.448;18.824;2023-03-20T06:04:03;97781.97;;;9.55;52.22
67397;BME280;57728;50.448;18.824;2023-03-20T06:06:37;97803.66;;;9.74;52.22
67397;BME280;57728;50.448;18.824;2023-03-20T06:08:39;97786.41;;;9.68;51.97
67397;BME280;57728;50.448;18.824;2023-03-20T06:10:41;97801.19;;;9.72;52.02
67397;BME280;57728;50.448;18.824;2023-03-20T06:12:44;97793.88;;;9.73;52.07
67397;BME280;57728;50.448;18.824;2023-03-20T06:14:46;97780.00;;;9.62;52.43
67397;BME280;57728;50.448;18.824;2023-03-20T06:16:49;97791.28;;;9.78;52.49
67397;BME280;57728;50.448;18.824;2023-03-20T06:18:50;97827.16;;;9.98;52.53
67397;BME280;57728;50.448;18.824;2023-03-20T06:20:54;97801.97;;;9.91;52.68
67397;BME280;57728;50.448;18.824;2023-03-20T06:22:57;97805.41;;;9.98;52.80
67397;BME280;57728;50.448;18.824;2023-03-20T06:24:59;97830.75;;;10.11;52.60
67397;BME280;57728;50.448;18.824;2023-03-20T06:27:12;97813.25;;;10.07;52.96
67397;BME280;57728;50.448;18.824;2023-03-20T06:29:14;97815.72;;;10.08;52.89
67397;BME280;57728;50.448;18.824;2023-03-20T06:31:15;97803.88;;;10.03;52.79
67397;BME280;57728;50.448;18.824;2023-03-20T06:33:18;97778.41;;;9.85;52.67
67397;BME280;57728;50.448;18.824;2023-03-20T06:35:31;97832.69;;;10.22;52.78
67397;BME280;57728;50.448;18.824;2023-03-20T06:37:34;97845.66;;;10.20;53.00
67397;BME280;57728;50.448;18.824;2023-03-20T06:39:41;97805.03;;;9.95;52.97
67397;BME280;57728;50.448;18.824;2023-03-20T06:41:49;97855.72;;;10.20;53.11
67397;BME280;57728;50.448;18.824;2023-03-20T06:43:52;97842.47;;;10.11;53.11
67397;BME280;57728;50.448;18.824;2023-03-20T06:45:54;97831.91;;;10.03;53.66
67397;BME280;57728;50.448;18.824;2023-03-20T06:48:05;97674.03;;;9.02;53.99
67397;BME280;57728;50.448;18.824;2023-03-20T06:50:10;97803.13;;;9.84;54.12
67397;BME280;57728;50.448;18.824;2023-03-20T06:52:15;97857.84;;;10.18;54.50
67397;BME280;57728;50.448;18.824;2023-03-20T06:54:21;97663.88;;;8.97;54.71
67397;BME280;57728;50.448;18.824;2023-03-20T06:56:22;97882.09;;;10.19;54.85
67397;BME280;57728;50.448;18.824;2023-03-20T06:58:25;97866.63;;;10.20;54.74
67397;BME280;57728;50.448;18.824;2023-03-20T07:00:27;97854.44;;;10.22;54.69
67397;BME280;57728;50.448;18.824;2023-03-20T07:02:29;97861.53;;;10.23;54.82
67397;BME280;57728;50.448;18.824;2023-03-20T07:04:31;97840.44;;;10.07;54.83
67397;BME280;57728;50.448;18.824;2023-03-20T07:06:37;97857.97;;;10.11;54.90
67397;BME280;57728;50.448;18.824;2023-03-20T07:08:39;97870.63;;;10.17;55.15
67397;BME280;57728;50.448;18.824;2023-03-20T07:10:41;97741.72;;;9.34;54.98
67397;BME280;57728;50.448;18.824;2023-03-20T07:12:43;97874.63;;;10.14;55.26
67397;BME280;57728;50.448;18.824;2023-03-20T07:14:45;97830.91;;;9.86;55.22
67397;BME280;57728;50.448;18.824;2023-03-20T07:16:51;97873.44;;;10.10;55.45
67397;BME280;57728;50.448;18.824;2023-03-20T07:18:53;97822.94;;;9.72;55.74
67397;BME280;57728;50.448;18.824;2023-03-20T07:21:00;97742.50;;;9.22;55.97
67397;BME280;57728;50.448;18.824;2023-03-20T07:23:04;97851.75;;;9.92;56.25
67397;BME280;57728;50.448;18.824;2023-03-20T07:25:09;97804.53;;;9.74;56.28
67397;BME280;57728;50.448;18.824;2023-03-20T07:27:11;97836.28;;;10.04;56.20
67397;BME280;57728;50.448;18.824;2023-03-20T07:29:13;97865.56;;;10.32;56.57
67397;BME280;57728;50.448;18.824;2023-03-20T07:31:19;97865.63;;;10.44;56.54
67397;BME280;57728;50.448;18.824;2023-03-20T07:33:31;97823.09;;;10.31;56.73
67397;BME280;57728;50.448;18.824;2023-03-20T07:35:33;97886.97;;;10.71;56.89
67397;BME280;57728;50.448;18.824;2023-03-20T07:37:36;97815.09;;;10.37;56.67
67397;BME280;57728;50.448;18.824;2023-03-20T07:39:38;97891.97;;;10.86;56.72
67397;BME280;57728;50.448;18.824;2023-03-20T07:42:06;97788.13;;;10.35;57.22
67397;BME280;57728;50.448;18.824;2023-03-20T07:44:17;97880.00;;;10.99;57.08
67397;BME280;57728;50.448;18.824;2023-03-20T07:46:26;97875.84;;;11.08;57.21
67397;BME280;57728;50.448;18.824;2023-03-20T07:48:28;97869.69;;;11.01;56.93
67397;BME280;57728;50.448;18.824;2023-03-20T07:50:30;97827.31;;;10.70;57.02
67397;BME280;57728;50.448;18.824;2023-03-20T07:52:31;97793.47;;;10.54;57.07
67397;BME280;57728;50.448;18.824;2023-03-20T07:54:33;97883.44;;;11.06;57.01
67397;BME280;57728;50.448;18.824;2023-03-20T07:56:35;97842.69;;;10.76;57.48
67397;BME280;57728;50.448;18.824;2023-03-20T07:58:37;97894.44;;;10.99;57.51
67397;BME280;57728;50.448;18.824;2023-03-20T08:00:38;97845.88;;;10.73;57.68
67397;BME280;57728;50.448;18.824;2023-03-20T08:02:41;97808.72;;;10.55;57.97
67397;BME280;57728;50.448;18.824;2023-03-20T08:04:43;97781.69;;;10.29;58.47
67397;BME280;57728;50.448;18.824;2023-03-20T08:06:46;97891.47;;;10.89;59.00
67397;BME280;57728;50.448;18.824;2023-03-20T08:08:48;97865.66;;;10.56;59.51
67397;BME280;57728;50.448;18.824;2023-03-20T08:10:52;97857.69;;;10.43;60.00
67397;BME280;57728;50.448;18.824;2023-03-20T08:12:53;97899.16;;;10.57;60.59
67397;BME280;57728;50.448;18.824;2023-03-20T08:14:56;97795.00;;;9.95;61.09
67397;BME280;57728;50.448;18.824;2023-03-20T08:16:58;97889.19;;;10.51;61.80
67397;BME280;57728;50.448;18.824;2023-03-20T08:18:59;97885.53;;;10.45;61.93
67397;BME280;57728;50.448;18.824;2023-03-20T08:21:02;97885.84;;;10.37;62.27
67397;BME280;57728;50.448;18.824;2023-03-20T08:23:04;97881.91;;;10.32;62.81
67397;BME280;57728;50.448;18.824;2023-03-20T08:25:06;97896.84;;;10.42;62.95
67397;BME280;57728;50.448;18.824;2023-03-20T08:27:09;97859.41;;;10.25;63.45
67397;BME280;57728;50.448;18.824;2023-03-20T08:29:10;97823.97;;;10.02;63.34
67397;BME280;57728;50.448;18.824;2023-03-20T08:31:12;97812.16;;;10.08;63.62
67397;BME280;57728;50.448;18.824;2023-03-20T08:33:17;97833.97;;;10.20;63.84
67397;BME280;57728;50.448;18.824;2023-03-20T08:35:19;97888.16;;;10.63;64.12
67397;BME280;57728;50.448;18.824;2023-03-20T08:37:21;97870.34;;;10.49;64.23
67397;BME280;57728;50.448;18.824;2023-03-20T08:39:23;97817.50;;;10.26;64.38
67397;BME280;57728;50.448;18.824;2023-03-20T08:41:25;97891.25;;;10.79;64.91
67397;BME280;57728;50.448;18.824;2023-03-20T08:43:26;97832.03;;;10.51;64.74
67397;BME280;57728;50.448;18.824;2023-03-20T08:45:28;97787.81;;;10.13;64.80
67397;BME280;57728;50.448;18.824;2023-03-20T08:47:30;97898.69;;;10.83;65.12
67397;BME280;57728;50.448;18.824;2023-03-20T08:49:31;97899.53;;;10.84;65.48
67397;BME280;57728;50.448;18.824;2023-03-20T08:51:34;97886.72;;;10.73;65.49
67397;BME280;57728;50.448;18.824;2023-03-20T08:53:35;97893.84;;;10.74;65.72
67397;BME280;57728;50.448;18.824;2023-03-20T08:55:37;97846.56;;;10.44;65.92
67397;BME280;57728;50.448;18.824;2023-03-20T08:57:39;97907.44;;;10.86;66.12
67397;BME280;57728;50.448;18.824;2023-03-20T08:59:41;97841.50;;;10.48;66.43
67397;BME280;57728;50.448;18.824;2023-03-20T09:01:43;97889.91;;;10.81;66.51
67397;BME280;57728;50.448;18.824;2023-03-20T09:03:45;97898.69;;;10.95;66.86
67397;BME280;57728;50.448;18.824;2023-03-20T09:05:48;97909.94;;;11.11;66.81
67397;BME280;57728;50.448;18.824;2023-03-20T09:07:52;97906.06;;;11.18;66.63
67397;BME280;57728;50.448;18.824;2023-03-20T09:09:54;97880.09;;;11.16;66.86
67397;BME280;57728;50.448;18.824;2023-03-20T09:11:56;97877.72;;;11.31;66.85
67397;BME280;57728;50.448;18.824;2023-03-20T09:13:59;97819.72;;;11.07;66.54
67397;BME280;57728;50.448;18.824;2023-03-20T09:16:01;97794.34;;;11.07;66.12
67397;BME280;57728;50.448;18.824;2023-03-20T09:18:03;97896.09;;;11.77;66.07
67397;BME280;57728;50.448;18.824;2023-03-20T09:20:05;97873.63;;;11.58;66.00
67397;BME280;57728;50.448;18.824;2023-03-20T09:22:13;97907.75;;;11.72;66.18
67397;BME280;57728;50.448;18.824;2023-03-20T09:24:17;97875.66;;;11.50;66.27
67397;BME280;57728;50.448;18.824;2023-03-20T09:26:19;97898.84;;;11.65;66.53
67397;BME280;57728;50.448;18.824;2023-03-20T09:28:21;97848.69;;;11.25;66.72
67397;BME280;57728;50.448;18.824;2023-03-20T09:30:23;97895.69;;;11.56;67.19
67397;BME280;57728;50.448;18.824;2023-03-20T09:32:25;97889.84;;;11.64;66.91
67397;BME280;57728;50.448;18.824;2023-03-20T09:34:27;97852.81;;;11.40;67.24
67397;BME280;57728;50.448;18.824;2023-03-20T09:36:29;97769.75;;;11.01;67.47
67397;BME280;57728;50.448;18.824;2023-03-20T09:38:30;97882.84;;;11.68;67.27
67397;BME280;57728;50.448;18.824;2023-03-20T09:40:54;97881.19;;;11.67;67.52
67397;BME280;57728;50.448;18.824;2023-03-20T09:43:16;97894.44;;;11.76;67.53
67397;BME280;57728;50.448;18.824;2023-03-20T09:52:34;97885.00;;;11.66;69.18
67397;BME280;57728;50.448;18.824;2023-03-20T09:54:52;97873.97;;;11.61;69.02
67397;BME280;57728;50.448;18.824;2023-03-20T09:57:00;97823.47;;;11.30;69.20
67397;BME280;57728;50.448;18.824;2023-03-20T09:59:05;97893.13;;;11.78;69.24
67397;BME280;57728;50.448;18.824;2023-03-20T10:01:13;97872.19;;;11.67;69.67
67397;BME280;57728;50.448;18.824;2023-03-20T10:03:24;97906.97;;;11.88;69.68
67397;BME280;57728;50.448;18.824;2023-03-20T10:05:41;97778.16;;;11.00;69.54
67397;BME280;57728;50.448;18.824;2023-03-20T10:07:55;97908.53;;;11.84;69.75
67397;BME280;57728;50.448;18.824;2023-03-20T10:10:00;97846.28;;;11.52;69.96
67397;BME280;57728;50.448;18.824;2023-03-20T10:19:28;97895.31;;;11.93;70.71
67397;BME280;57728;50.448;18.824;2023-03-20T10:21:46;97894.69;;;12.15;70.77
67397;BME280;57728;50.448;18.824;2023-03-20T10:24:03;97870.13;;;12.15;70.16
67397;BME280;57728;50.448;18.824;2023-03-20T10:26:11;97890.25;;;12.43;69.92
67397;BME280;57728;50.448;18.824;2023-03-20T10:39:01;97888.88;;;12.74;68.67
67397;BME280;57728;50.448;18.824;2023-03-20T10:41:16;97867.69;;;12.64;69.12
67397;BME280;57728;50.448;18.824;2023-03-20T10:43:31;97888.53;;;12.87;69.05
67397;BME280;57728;50.448;18.824;2023-03-20T10:45:57;97871.91;;;12.89;68.74
67397;BME280;57728;50.448;18.824;2023-03-20T10:48:29;97886.63;;;13.05;68.33
67397;BME280;57728;50.448;18.824;2023-03-20T10:50:45;97881.91;;;13.00;68.40
67397;BME280;57728;50.448;18.824;2023-03-20T10:52:55;97877.09;;;13.07;67.64
67397;BME280;57728;50.448;18.824;2023-03-20T10:55:06;97846.25;;;12.90;67.76
67397;BME280;57728;50.448;18.824;2023-03-20T10:57:24;97809.59;;;12.69;67.82
67397;BME280;57728;50.448;18.824;2023-03-20T10:59:39;97887.81;;;13.31;67.87
67397;BME280;57728;50.448;18.824;2023-03-20T11:01:44;97882.50;;;13.41;67.42
67397;BME280;57728;50.448;18.824;2023-03-20T11:03:46;97860.06;;;13.39;67.57
67397;BME280;57728;50.448;18.824;2023-03-20T11:05:57;97884.38;;;13.58;66.76
67397;BME280;57728;50.448;18.824;2023-03-20T11:08:10;97876.97;;;13.58;66.85
67397;BME280;57728;50.448;18.824;2023-03-20T11:10:15;97748.34;;;12.65;66.57
67397;BME280;57728;50.448;18.824;2023-03-20T11:12:19;97860.16;;;13.45;67.06
67397;BME280;57728;50.448;18.824;2023-03-20T11:14:26;97857.16;;;13.46;66.76
67397;BME280;57728;50.448;18.824;2023-03-20T11:16:35;97820.28;;;13.32;66.62
67397;BME280;57728;50.448;18.824;2023-03-20T11:18:43;97884.00;;;13.71;66.58
67397;BME280;57728;50.448;18.824;2023-03-20T11:20:53;97865.03;;;13.65;66.45
67397;BME280;57728;50.448;18.824;2023-03-20T11:23:07;97856.88;;;13.70;66.50
67397;BME280;57728;50.448;18.824;2023-03-20T11:25:36;97873.22;;;13.87;66.06
67397;BME280;57728;50.448;18.824;2023-03-20T11:27:39;97869.28;;;13.78;66.10
67397;BME280;57728;50.448;18.824;2023-03-20T11:29:47;97821.34;;;13.48;66.07
67397;BME280;57728;50.448;18.824;2023-03-20T11:31:51;97875.31;;;13.80;66.34
67397;BME280;57728;50.448;18.824;2023-03-20T11:36:22;97881.38;;;13.82;65.80
67397;BME280;57728;50.448;18.824;2023-03-20T11:38:29;97813.59;;;13.39;65.77
67397;BME280;57728;50.448;18.824;2023-03-20T11:40:32;97830.63;;;13.47;65.52
67397;BME280;57728;50.448;18.824;2023-03-20T11:42:35;97840.75;;;13.46;65.83
67397;BME280;57728;50.448;18.824;2023-03-20T11:44:37;97867.41;;;13.56;65.81
67397;BME280;57728;50.448;18.824;2023-03-20T11:46:38;97809.59;;;13.08;65.95
67397;BME280;57728;50.448;18.824;2023-03-20T11:48:43;97842.91;;;13.27;66.29
67397;BME280;57728;50.448;18.824;2023-03-20T11:51:07;97862.47;;;13.36;66.41
67397;BME280;57728;50.448;18.824;2023-03-20T11:53:41;97858.34;;;13.33;66.27
67397;BME280;57728;50.448;18.824;2023-03-20T11:56:19;97859.06;;;13.29;66.25
67397;BME280;57728;50.448;18.824;2023-03-20T11:58:23;97753.00;;;12.64;66.29
67397;BME280;57728;50.448;18.824;2023-03-20T12:00:33;97816.91;;;13.02;66.36
67397;BME280;57728;50.448;18.824;2023-03-20T12:02:42;97864.03;;;13.32;66.38
67397;BME280;57728;50.448;18.824;2023-03-20T12:04:44;97853.19;;;13.37;66.17
67397;BME280;57728;50.448;18.824;2023-03-20T12:06:50;97852.50;;;13.47;66.19
67397;BME280;57728;50.448;18.824;2023-03-20T12:09:08;97814.59;;;13.33;65.98
67397;BME280;57728;50.448;18.824;2023-03-20T12:11:41;97840.69;;;13.63;65.82
67397;BME280;57728;50.448;18.824;2023-03-20T12:13:50;97829.06;;;13.78;65.35
67397;BME280;57728;50.448;18.824;2023-03-20T12:16:00;97808.66;;;13.86;65.16
67397;BME280;57728;50.448;18.824;2023-03-20T12:21:11;97838.50;;;14.47;63.74